createdAt,value
2022-10-11T07:53:52.572Z,100.00
2022-10-11T07:56:30.958Z,100.00
2022-10-11T07:59:06.464Z,100.00
2022-10-11T08:01:38.721Z,100.00
2022-10-11T08:04:10.964Z,100.00
2022-10-11T08:06:43.238Z,100.00
2022-10-11T08:09:16.571Z,100.00
2022-10-11T08:11:48.893Z,100.00
2022-10-11T08:14:21.417Z,100.00
2022-10-11T08:16:53.657Z,100.00
2022-10-11T08:19:25.891Z,100.00
2022-10-11T08:22:00.588Z,100.00
2022-10-11T08:24:38.013Z,100.00
2022-10-11T08:27:10.613Z,100.00
2022-10-11T08:29:42.889Z,100.00
2022-10-11T08:32:16.569Z,100.00
2022-10-11T08:34:49.375Z,100.00
2022-10-11T08:37:21.641Z,100.00
2022-10-11T08:39:54.248Z,100.00
2022-10-11T08:42:42.077Z,100.00
2022-10-11T08:45:27.117Z,100.00
2022-10-11T08:48:25.724Z,100.00
2022-10-11T08:50:58.725Z,100.00
2022-10-11T08:53:37.188Z,100.00
2022-10-11T08:56:13.603Z,100.00
2022-10-11T08:58:50.655Z,100.00
2022-10-11T09:01:20.765Z,100.00
2022-10-11T09:03:46.499Z,100.00
2022-10-11T09:06:11.494Z,100.00
2022-10-11T09:08:40.529Z,100.00
2022-10-11T09:11:19.505Z,100.00
2022-10-11T09:14:07.148Z,100.00
2022-10-11T09:16:45.743Z,100.00
2022-10-11T09:19:16.942Z,100.00
2022-10-11T09:21:45.723Z,100.00
2022-10-11T09:24:21.776Z,100.00
2022-10-11T09:26:51.139Z,100.00
2022-10-11T09:29:20.481Z,100.00
2022-10-11T09:31:52.557Z,100.00
2022-10-11T09:34:16.167Z,100.00
2022-10-11T09:36:41.107Z,100.00
2022-10-11T09:39:25.823Z,100.00
2022-10-11T09:42:00.162Z,100.00
2022-10-11T09:44:24.767Z,100.00
2022-10-11T09:46:49.267Z,100.00
2022-10-11T09:49:18.491Z,100.00
2022-10-11T09:51:45.102Z,100.00
2022-10-11T09:54:10.561Z,100.00
2022-10-11T09:56:34.662Z,100.00
2022-10-11T09:59:07.077Z,100.00
2022-10-11T10:01:30.940Z,100.00
2022-10-11T10:04:16.999Z,100.00
2022-10-11T10:06:40.231Z,100.00
2022-10-11T10:09:34.918Z,100.00
2022-10-11T10:11:58.048Z,100.00
2022-10-11T10:14:24.220Z,100.00
2022-10-11T10:16:46.426Z,100.00
2022-10-11T10:19:19.448Z,100.00
2022-10-11T10:21:47.985Z,100.00
2022-10-11T10:24:20.939Z,100.00
2022-10-11T10:26:44.500Z,100.00
2022-10-11T10:29:12.300Z,97.17
2022-10-11T10:32:13.268Z,93.88
2022-10-11T10:34:38.014Z,93.57
2022-10-11T10:37:06.735Z,90.43
2022-10-11T10:39:34.371Z,89.95
2022-10-11T10:41:57.013Z,90.80
2022-10-11T10:44:19.477Z,86.38
2022-10-11T10:47:00.233Z,88.33
2022-10-11T10:49:53.732Z,86.63
2022-10-11T10:52:20.887Z,83.55
2022-10-11T10:55:07.807Z,87.68
2022-10-11T10:57:54.458Z,84.01
2022-10-11T11:00:21.398Z,79.93
2022-10-11T11:03:02.451Z,78.85
2022-10-11T11:05:27.540Z,79.27
2022-10-11T11:08:27.607Z,73.46
2022-10-11T11:11:27.017Z,75.66
2022-10-11T11:14:03.383Z,76.01
2022-10-11T11:16:31.350Z,72.92
2022-10-11T11:19:09.859Z,71.69
2022-10-11T11:21:51.192Z,72.67
2022-10-11T11:24:34.772Z,72.93
2022-10-11T11:27:15.727Z,72.49
2022-10-11T11:29:43.744Z,70.47
2022-10-11T11:32:34.865Z,67.00
2022-10-11T11:35:03.900Z,68.74
2022-10-11T11:37:34.715Z,68.65
2022-10-11T11:40:07.873Z,65.70
2022-10-11T11:42:48.532Z,62.54
2022-10-11T11:45:40.112Z,56.62
2022-10-11T11:48:04.088Z,54.56
2022-10-11T11:50:28.623Z,61.34
2022-10-11T11:53:08.070Z,54.51
2022-10-11T11:55:48.298Z,57.42
2022-10-11T11:58:45.503Z,57.10
2022-10-11T12:01:37.515Z,57.87
2022-10-11T12:04:05.193Z,58.22
2022-10-11T12:06:47.764Z,60.25
2022-10-11T12:09:18.570Z,60.33
2022-10-11T12:11:46.160Z,60.20
2022-10-11T12:14:29.752Z,57.04
2022-10-11T12:17:23.712Z,56.14
2022-10-11T12:20:24.537Z,56.93
2022-10-11T12:22:49.544Z,58.16
2022-10-11T12:25:18.539Z,51.09
2022-10-11T12:27:44.318Z,48.38
2022-10-11T12:30:44.257Z,52.29
2022-10-11T12:33:45.628Z,57.99
2022-10-11T12:36:29.740Z,59.26
2022-10-11T12:39:20.566Z,58.79
2022-10-11T12:41:49.107Z,57.69
2022-10-11T12:44:28.386Z,55.15
2022-10-11T12:46:50.217Z,54.37
2022-10-11T12:49:29.324Z,54.10
2022-10-11T12:51:51.305Z,52.71
2022-10-11T12:54:26.678Z,51.75
2022-10-11T12:57:02.302Z,51.84
2022-10-11T12:59:25.040Z,50.94
2022-10-11T13:01:56.621Z,50.29
2022-10-11T13:04:29.346Z,49.54
2022-10-11T13:07:01.103Z,51.50
2022-10-11T13:09:48.082Z,53.78
2022-10-11T13:12:21.159Z,55.03
2022-10-11T13:14:48.348Z,55.47
2022-10-11T13:17:34.493Z,55.83
2022-10-11T13:20:15.759Z,57.24
2022-10-11T13:22:40.542Z,57.29
2022-10-11T13:25:05.662Z,58.06
2022-10-11T13:27:28.012Z,59.34
2022-10-11T13:29:53.074Z,59.30
2022-10-11T13:32:20.006Z,57.70
2022-10-11T13:34:45.984Z,57.14
2022-10-11T13:37:17.535Z,57.07
2022-10-11T13:39:39.506Z,55.83
2022-10-11T13:42:07.557Z,49.28
2022-10-11T13:44:33.174Z,50.65
2022-10-11T13:46:55.741Z,51.04
2022-10-11T13:49:37.676Z,53.46
2022-10-11T13:52:03.333Z,51.18
2022-10-11T13:54:25.305Z,52.66
2022-10-11T13:56:51.513Z,50.90
2022-10-11T13:59:20.921Z,49.41
2022-10-11T14:01:45.531Z,45.11
2022-10-11T14:04:10.269Z,49.55
2022-10-11T14:07:00.311Z,52.04
2022-10-11T14:09:24.122Z,46.65
2022-10-11T14:11:46.471Z,48.67
2022-10-11T14:14:30.325Z,49.87
2022-10-11T14:16:58.808Z,50.13
2022-10-11T14:19:21.184Z,49.77
2022-10-11T14:21:46.117Z,51.64
2022-10-11T14:24:10.673Z,53.00
2022-10-11T14:26:43.511Z,53.11
2022-10-11T14:29:14.001Z,49.32
2022-10-11T14:31:41.357Z,49.57
2022-10-11T14:34:04.518Z,52.02
2022-10-11T14:36:26.691Z,54.24
2022-10-11T14:38:50.224Z,54.31
2022-10-11T14:41:12.194Z,54.13
2022-10-11T14:43:34.095Z,54.72
2022-10-11T14:45:56.010Z,52.73
2022-10-11T14:48:36.659Z,50.92
2022-10-11T14:51:03.218Z,52.12
2022-10-11T14:53:27.085Z,53.80
2022-10-11T14:55:50.045Z,54.64
2022-10-11T14:58:14.530Z,53.95
2022-10-11T15:00:37.183Z,55.90
2022-10-11T15:02:59.802Z,54.80
2022-10-11T15:05:24.462Z,54.62
2022-10-11T15:07:46.554Z,56.71
2022-10-11T15:10:46.969Z,59.16
2022-10-11T15:13:09.997Z,60.73
2022-10-11T15:15:35.414Z,62.33
2022-10-11T15:17:59.951Z,61.84
2022-10-11T15:20:44.442Z,60.77
2022-10-11T15:23:09.535Z,61.18
2022-10-11T15:25:31.725Z,61.98
2022-10-11T15:27:53.713Z,63.30
2022-10-11T15:30:25.135Z,59.83
2022-10-11T15:32:47.981Z,59.93
2022-10-11T15:35:11.533Z,60.87
2022-10-11T15:37:37.294Z,60.27
2022-10-11T15:39:59.512Z,59.89
2022-10-11T15:42:23.977Z,59.08
2022-10-11T15:44:45.944Z,59.70
2022-10-11T15:47:08.752Z,61.28
2022-10-11T15:49:30.705Z,62.97
2022-10-11T15:51:52.755Z,64.72
2022-10-11T15:54:14.685Z,65.60
2022-10-11T15:56:36.627Z,65.08
2022-10-11T15:58:58.714Z,63.70
2022-10-11T16:01:20.817Z,62.36
2022-10-11T16:03:43.802Z,62.22
2022-10-11T16:06:08.636Z,62.17
2022-10-11T16:08:30.910Z,62.23
2022-10-11T16:10:53.580Z,61.93
2022-10-11T16:13:15.890Z,62.28
2022-10-11T16:15:39.809Z,61.86
2022-10-11T16:18:02.455Z,61.77
2022-10-11T16:20:25.821Z,61.65
2022-10-11T16:22:49.633Z,61.40
2022-10-11T16:25:11.563Z,62.50
2022-10-11T16:27:36.149Z,64.47
2022-10-11T16:30:00.144Z,65.18
2022-10-11T16:32:22.931Z,66.08
2022-10-11T16:34:44.785Z,65.61
2022-10-11T16:37:06.756Z,66.56
2022-10-11T16:39:29.123Z,66.52
2022-10-11T16:41:51.168Z,66.17
2022-10-11T16:44:15.061Z,66.88
2022-10-11T16:46:37.053Z,68.87
2022-10-11T16:48:58.953Z,67.76
2022-10-11T16:51:20.818Z,66.91
2022-10-11T16:53:42.691Z,65.34
2022-10-11T16:56:09.158Z,64.47
2022-10-11T16:58:33.876Z,64.54
2022-10-11T17:00:55.863Z,64.91
2022-10-11T17:03:17.926Z,65.26
2022-10-11T17:05:41.237Z,65.45
2022-10-11T17:08:03.102Z,66.12
2022-10-11T17:10:39.442Z,65.62
2022-10-11T17:13:01.482Z,66.02
2022-10-11T17:15:26.202Z,65.52
2022-10-11T17:17:48.130Z,65.46
2022-10-11T17:20:10.041Z,66.16
2022-10-11T17:22:33.160Z,66.56
2022-10-11T17:24:55.103Z,66.27
2022-10-11T17:27:17.168Z,66.69
2022-10-11T17:29:40.397Z,66.28
2022-10-11T17:32:02.649Z,66.36
2022-10-11T17:34:24.587Z,66.60
2022-10-11T17:36:46.572Z,66.83
2022-10-11T17:39:11.927Z,67.35
2022-10-11T17:41:34.293Z,67.86
2022-10-11T17:43:56.314Z,67.77
2022-10-11T17:46:18.708Z,67.81
2022-10-11T17:48:41.334Z,67.93
2022-10-11T17:51:17.927Z,68.13
2022-10-11T17:53:40.716Z,67.85
2022-10-11T17:56:08.162Z,67.68
2022-10-11T17:58:30.139Z,67.53
2022-10-11T18:00:52.150Z,67.19
2022-10-11T18:03:14.161Z,67.70
2022-10-11T18:05:41.064Z,68.29
2022-10-11T18:08:02.979Z,68.32
2022-10-11T18:10:25.180Z,68.73
2022-10-11T18:12:47.188Z,67.90
2022-10-11T18:15:09.475Z,67.42
2022-10-11T18:17:31.425Z,68.58
2022-10-11T18:19:53.384Z,68.62
2022-10-11T18:22:15.376Z,69.07
2022-10-11T18:24:37.460Z,68.47
2022-10-11T18:26:59.326Z,68.18
2022-10-11T18:29:23.764Z,68.71
2022-10-11T18:31:46.193Z,69.12
2022-10-11T18:34:10.861Z,69.20
2022-10-11T18:36:33.368Z,69.40
2022-10-11T18:38:58.632Z,69.14
2022-10-11T18:41:22.948Z,68.90
2022-10-11T18:43:52.946Z,69.97
2022-10-11T18:46:16.470Z,69.74
2022-10-11T18:48:43.134Z,70.08
2022-10-11T18:51:08.107Z,70.61
2022-10-11T18:53:32.442Z,71.77
2022-10-11T18:56:02.143Z,72.40
2022-10-11T18:58:24.150Z,71.91
2022-10-11T19:00:46.126Z,71.64
2022-10-11T19:03:09.150Z,72.75
2022-10-11T19:05:31.094Z,73.38
2022-10-11T19:07:56.689Z,74.24
2022-10-11T19:10:21.841Z,73.77
2022-10-11T19:12:43.942Z,73.13
2022-10-11T19:15:07.817Z,74.70
2022-10-11T19:17:30.066Z,74.05
2022-10-11T19:19:51.967Z,74.79
2022-10-11T19:22:13.838Z,74.69
2022-10-11T19:24:35.719Z,75.60
2022-10-11T19:27:02.498Z,75.06
2022-10-11T19:29:26.950Z,75.38
2022-10-11T19:31:55.372Z,74.91
2022-10-11T19:34:18.182Z,75.30
2022-10-11T19:36:42.812Z,74.74
2022-10-11T19:39:06.025Z,74.68
2022-10-11T19:41:32.013Z,75.49
2022-10-11T19:43:54.646Z,75.53
2022-10-11T19:46:37.967Z,75.16
2022-10-11T19:49:01.992Z,74.33
2022-10-11T19:51:26.198Z,75.01
2022-10-11T19:53:57.667Z,75.43
2022-10-11T19:56:19.672Z,75.89
2022-10-11T19:58:42.270Z,75.89
2022-10-11T20:01:17.882Z,77.14
2022-10-11T20:03:39.909Z,78.16
2022-10-11T20:06:03.120Z,80.27
2022-10-11T20:08:25.058Z,79.52
2022-10-11T20:10:48.421Z,78.75
2022-10-11T20:13:12.124Z,79.19
2022-10-11T20:15:37.545Z,78.70
2022-10-11T20:18:00.554Z,79.22
2022-10-11T20:20:23.536Z,80.63
2022-10-11T20:22:45.546Z,80.63
2022-10-11T20:25:07.867Z,80.04
2022-10-11T20:27:31.984Z,81.02
2022-10-11T20:29:54.010Z,80.44
2022-10-11T20:32:15.929Z,79.61
2022-10-11T20:34:39.576Z,80.12
2022-10-11T20:37:01.435Z,80.35
2022-10-11T20:39:23.883Z,81.16
2022-10-11T20:41:46.269Z,80.61
2022-10-11T20:44:12.474Z,80.05
2022-10-11T20:46:37.097Z,80.19
2022-10-11T20:49:02.437Z,80.60
2022-10-11T20:51:24.468Z,81.71
2022-10-11T20:53:47.463Z,81.83
2022-10-11T20:56:12.340Z,81.78
2022-10-11T20:58:35.369Z,81.51
2022-10-11T21:00:57.311Z,80.78
2022-10-11T21:03:20.353Z,81.59
2022-10-11T21:05:43.539Z,83.40
2022-10-11T21:08:10.324Z,82.71
2022-10-11T21:10:35.839Z,83.27
2022-10-11T21:12:57.667Z,84.68
2022-10-11T21:15:19.532Z,85.30
2022-10-11T21:17:42.444Z,84.63
2022-10-11T21:20:06.131Z,84.78
2022-10-11T21:22:27.993Z,83.70
2022-10-11T21:24:49.928Z,83.44
2022-10-11T21:27:11.874Z,84.72
2022-10-11T21:29:34.927Z,84.92
2022-10-11T21:31:56.859Z,85.41
2022-10-11T21:34:18.788Z,85.64
2022-10-11T21:36:40.897Z,86.39
2022-10-11T21:39:03.953Z,85.97
2022-10-11T21:41:29.109Z,86.71
2022-10-11T21:43:51.942Z,87.10
2022-10-11T21:46:41.757Z,85.32
2022-10-11T21:49:12.869Z,85.40
2022-10-11T21:51:34.747Z,85.23
2022-10-11T21:53:59.598Z,85.66
2022-10-11T21:56:21.868Z,83.88
2022-10-11T21:58:47.606Z,85.19
2022-10-11T22:01:11.827Z,84.83
2022-10-11T22:03:33.900Z,84.20
2022-10-11T22:05:55.813Z,83.96
2022-10-11T22:08:19.097Z,82.85
2022-10-11T22:10:51.885Z,82.65
2022-10-11T22:13:14.906Z,82.71
2022-10-11T22:15:37.299Z,82.19
2022-10-11T22:17:59.154Z,82.74
2022-10-11T22:20:22.000Z,82.09
2022-10-11T22:22:43.815Z,83.21
2022-10-11T22:25:08.809Z,83.02
2022-10-11T22:27:30.666Z,83.18
2022-10-11T22:29:52.576Z,82.31
2022-10-11T22:32:14.424Z,81.47
2022-10-11T22:34:37.775Z,81.47
2022-10-11T22:36:59.712Z,82.02
2022-10-11T22:39:23.041Z,82.07
2022-10-11T22:41:44.961Z,82.10
2022-10-11T22:44:08.202Z,82.72
2022-10-11T22:46:30.152Z,82.50
2022-10-11T22:48:52.104Z,83.88
2022-10-11T22:51:14.618Z,82.69
2022-10-11T22:53:36.494Z,83.16
2022-10-11T22:55:58.787Z,83.17
2022-10-11T22:58:20.728Z,84.85
2022-10-11T23:00:42.892Z,84.12
2022-10-11T23:03:07.169Z,83.76
2022-10-11T23:05:29.163Z,83.45
2022-10-11T23:07:52.333Z,83.79
2022-10-11T23:10:15.594Z,84.97
2022-10-11T23:12:37.519Z,86.00
2022-10-11T23:14:59.372Z,85.78
2022-10-11T23:17:21.640Z,84.88
2022-10-11T23:19:43.544Z,84.27
2022-10-11T23:22:05.456Z,84.69
2022-10-11T23:24:27.332Z,84.96
2022-10-11T23:26:49.297Z,85.23
2022-10-11T23:29:11.264Z,84.46
2022-10-11T23:31:33.133Z,84.36
2022-10-11T23:33:55.074Z,84.60
2022-10-11T23:36:19.771Z,85.36
2022-10-11T23:38:41.767Z,85.79
2022-10-11T23:41:03.813Z,84.29
2022-10-11T23:43:25.786Z,85.04
2022-10-11T23:45:47.710Z,85.31
2022-10-11T23:48:09.710Z,85.43
2022-10-11T23:50:31.591Z,84.93
2022-10-11T23:52:53.696Z,85.18
2022-10-11T23:55:15.871Z,85.29
2022-10-11T23:57:38.161Z,85.23
